HYS256 LRTR-LROP
Flight info
| Callsign | HYS256 |
|---|---|
| Flight time | 0h 45m |
| Altitude | 29000 |
| Route | DITAX DCT LAMIT DCT TOSVI |
| Aircraft | A21N/M-SDE3FGHIRWY/LB1 |
Departure
| Time | 2026-04-24 15:19 |
|---|---|
| Airport | Timișoara Traian Vuia International Airport (LRTR) |
Arrival
| Time | 2026-04-24 16:05 |
|---|---|
| Airport | Bucharest Henri Coandă International Airport (LROP) |
| Time | Latitude | Longitude | Altitude | Speed | Heading |
|---|---|---|---|---|---|
| 2026-04-24 15:06 | 45.81078 | 21.32086 | 356 ft | 0 kts | 199° |
| 2026-04-24 15:11 | 45.81083 | 21.32088 | 356 ft | 2 kts | 199° |
| 2026-04-24 15:12 | 45.81097 | 21.32095 | 356 ft | 2 kts | 199° |
| 2026-04-24 15:12 | 45.81116 | 21.32128 | 356 ft | 2 kts | 262° |
| 2026-04-24 15:12 | 45.81115 | 21.32146 | 356 ft | 0 kts | 286° |
| 2026-04-24 15:13 | 45.81113 | 21.32155 | 356 ft | 1 kts | 290° |
| 2026-04-24 15:13 | 45.81113 | 21.32157 | 356 ft | 0 kts | 290° |
| 2026-04-24 15:15 | 45.81113 | 21.32154 | 356 ft | 0 kts | 290° |
| 2026-04-24 15:15 | 45.81117 | 21.32142 | 356 ft | 1 kts | 290° |
| 2026-04-24 15:15 | 45.81123 | 21.32118 | 356 ft | 3 kts | 290° |
| 2026-04-24 15:16 | 45.81137 | 21.32066 | 356 ft | 9 kts | 297° |
| 2026-04-24 15:16 | 45.81174 | 21.31942 | 356 ft | 17 kts | 289° |
| 2026-04-24 15:16 | 45.81222 | 21.31752 | 356 ft | 21 kts | 290° |
| 2026-04-24 15:16 | 45.81271 | 21.31594 | 356 ft | 12 kts | 325° |
| 2026-04-24 15:17 | 45.81354 | 21.31603 | 356 ft | 12 kts | 19° |
| 2026-04-24 15:17 | 45.81382 | 21.31617 | 356 ft | 0 kts | 19° |
| 2026-04-24 15:17 | 45.81388 | 21.31620 | 356 ft | 1 kts | 19° |
| 2026-04-24 15:17 | 45.81419 | 21.31635 | 356 ft | 7 kts | 19° |
| 2026-04-24 15:18 | 45.81469 | 21.31660 | 356 ft | 8 kts | 21° |
| 2026-04-24 15:18 | 45.81496 | 21.31732 | 356 ft | 9 kts | 94° |
| 2026-04-24 15:18 | 45.81474 | 21.31831 | 356 ft | 12 kts | 109° |
| 2026-04-24 15:18 | 45.81368 | 21.32258 | 357 ft | 86 kts | 109° |
| 2026-04-24 15:19 | 45.81075 | 21.33423 | 357 ft | 157 kts | 109° |
| 2026-04-24 15:19 | 45.80664 | 21.35078 | 656 ft | 187 kts | 107° |
| 2026-04-24 15:19 | 45.80215 | 21.36786 | 1497 ft | 186 kts | 109° |
| 2026-04-24 15:19 | 45.79773 | 21.38538 | 2305 ft | 190 kts | 107° |
| 2026-04-24 15:20 | 45.79320 | 21.40356 | 2930 ft | 205 kts | 107° |
| 2026-04-24 15:20 | 45.78819 | 21.42363 | 3373 ft | 220 kts | 107° |
| 2026-04-24 15:20 | 45.78284 | 21.44504 | 3735 ft | 238 kts | 108° |
| 2026-04-24 15:20 | 45.77649 | 21.46763 | 4130 ft | 256 kts | 113° |
| 2026-04-24 15:21 | 45.76796 | 21.49117 | 4553 ft | 273 kts | 117° |
| 2026-04-24 15:21 | 45.75915 | 21.51551 | 5172 ft | 280 kts | 115° |
| 2026-04-24 15:21 | 45.75028 | 21.54048 | 5908 ft | 283 kts | 115° |
| 2026-04-24 15:21 | 45.74134 | 21.56576 | 6643 ft | 286 kts | 115° |
| 2026-04-24 15:22 | 45.73239 | 21.59117 | 7331 ft | 289 kts | 115° |
| 2026-04-24 15:22 | 45.72323 | 21.61727 | 8015 ft | 293 kts | 114° |
| 2026-04-24 15:22 | 45.71410 | 21.64334 | 8677 ft | 297 kts | 114° |
| 2026-04-24 15:23 | 45.69545 | 21.69664 | 9954 ft | 304 kts | 114° |
| 2026-04-24 15:23 | 45.67608 | 21.75201 | 10794 ft | 326 kts | 114° |
| 2026-04-24 15:23 | 45.66574 | 21.78160 | 11094 ft | 340 kts | 114° |
| 2026-04-24 15:24 | 45.63309 | 21.87439 | 12789 ft | 352 kts | 114° |
| 2026-04-24 15:25 | 45.61099 | 21.93704 | 13914 ft | 358 kts | 114° |
| 2026-04-24 15:25 | 45.58853 | 22.00061 | 15013 ft | 363 kts | 113° |
| 2026-04-24 15:26 | 45.55416 | 22.09758 | 16581 ft | 370 kts | 112° |
| 2026-04-24 15:27 | 45.51906 | 22.19639 | 18004 ft | 377 kts | 112° |
| 2026-04-24 15:27 | 45.48312 | 22.29709 | 19423 ft | 384 kts | 112° |
| 2026-04-24 15:28 | 45.43516 | 22.43405 | 21181 ft | 392 kts | 110° |
| 2026-04-24 15:29 | 45.41104 | 22.50377 | 22004 ft | 396 kts | 111° |
| 2026-04-24 15:30 | 45.37433 | 22.60936 | 23187 ft | 401 kts | 110° |
| 2026-04-24 15:31 | 45.32397 | 22.75354 | 24583 ft | 411 kts | 111° |
| 2026-04-24 15:32 | 45.27232 | 22.90049 | 25930 ft | 418 kts | 111° |
| 2026-04-24 15:33 | 45.21981 | 23.04913 | 27161 ft | 425 kts | 111° |
| 2026-04-24 15:33 | 45.17968 | 23.16219 | 27994 ft | 431 kts | 111° |
| 2026-04-24 15:34 | 45.15263 | 23.23817 | 28524 ft | 435 kts | 111° |
| 2026-04-24 15:35 | 45.11246 | 23.35413 | 28962 ft | 435 kts | 107° |
| 2026-04-24 15:35 | 45.09246 | 23.43398 | 28963 ft | 430 kts | 100° |
| 2026-04-24 15:36 | 45.07704 | 23.51551 | 28963 ft | 429 kts | 99° |
| 2026-04-24 15:36 | 45.05417 | 23.63739 | 28961 ft | 430 kts | 99° |
| 2026-04-24 15:37 | 45.03868 | 23.71907 | 28959 ft | 429 kts | 99° |
| 2026-04-24 15:37 | 45.02303 | 23.80115 | 28959 ft | 429 kts | 99° |
| 2026-04-24 15:38 | 45.00735 | 23.88300 | 28957 ft | 431 kts | 99° |
| 2026-04-24 15:38 | 44.99153 | 23.96533 | 28955 ft | 431 kts | 99° |
| 2026-04-24 15:39 | 44.97569 | 24.04734 | 28683 ft | 431 kts | 99° |
| 2026-04-24 15:39 | 44.96784 | 24.08777 | 28276 ft | 426 kts | 99° |
| 2026-04-24 15:39 | 44.95996 | 24.12820 | 27868 ft | 424 kts | 99° |
| 2026-04-24 15:40 | 44.95223 | 24.16785 | 27467 ft | 421 kts | 99° |
| 2026-04-24 15:40 | 44.94456 | 24.20720 | 27046 ft | 418 kts | 99° |
| 2026-04-24 15:40 | 44.93679 | 24.24701 | 26613 ft | 416 kts | 99° |
| 2026-04-24 15:40 | 44.92916 | 24.28594 | 26187 ft | 413 kts | 99° |
| 2026-04-24 15:41 | 44.92150 | 24.32498 | 25877 ft | 410 kts | 99° |
| 2026-04-24 15:41 | 44.91392 | 24.36353 | 25610 ft | 410 kts | 99° |
| 2026-04-24 15:41 | 44.90627 | 24.40249 | 25344 ft | 408 kts | 99° |
| 2026-04-24 15:41 | 44.89876 | 24.44052 | 25083 ft | 407 kts | 99° |
| 2026-04-24 15:42 | 44.89111 | 24.47921 | 24811 ft | 406 kts | 99° |
| 2026-04-24 15:42 | 44.88347 | 24.51777 | 24535 ft | 404 kts | 99° |
| 2026-04-24 15:42 | 44.87590 | 24.55596 | 24232 ft | 403 kts | 99° |
| 2026-04-24 15:42 | 44.86828 | 24.59371 | 23863 ft | 401 kts | 99° |
| 2026-04-24 15:43 | 44.86077 | 24.63125 | 23496 ft | 398 kts | 99° |
| 2026-04-24 15:43 | 44.85330 | 24.66892 | 23128 ft | 397 kts | 99° |
| 2026-04-24 15:43 | 44.84582 | 24.70657 | 22762 ft | 395 kts | 99° |
| 2026-04-24 15:43 | 44.83839 | 24.74384 | 22397 ft | 393 kts | 99° |
| 2026-04-24 15:44 | 44.83102 | 24.78064 | 22034 ft | 392 kts | 100° |
| 2026-04-24 15:44 | 44.82362 | 24.81746 | 21671 ft | 390 kts | 99° |
| 2026-04-24 15:44 | 44.81626 | 24.85395 | 21308 ft | 388 kts | 99° |
| 2026-04-24 15:44 | 44.80888 | 24.89055 | 20950 ft | 387 kts | 100° |
| 2026-04-24 15:45 | 44.80156 | 24.92676 | 20591 ft | 386 kts | 100° |
| 2026-04-24 15:45 | 44.79422 | 24.96299 | 20234 ft | 383 kts | 100° |
| 2026-04-24 15:45 | 44.78697 | 24.99871 | 19880 ft | 382 kts | 99° |
| 2026-04-24 15:45 | 44.77967 | 25.03465 | 19520 ft | 381 kts | 100° |
| 2026-04-24 15:46 | 44.77232 | 25.07069 | 19161 ft | 379 kts | 100° |
| 2026-04-24 15:46 | 44.76512 | 25.10594 | 18814 ft | 378 kts | 100° |
| 2026-04-24 15:46 | 44.75785 | 25.14149 | 18464 ft | 376 kts | 100° |
| 2026-04-24 15:46 | 44.75133 | 25.17726 | 18105 ft | 372 kts | 96° |
| 2026-04-24 15:47 | 44.74588 | 25.21265 | 17755 ft | 370 kts | 96° |
| 2026-04-24 15:47 | 44.74060 | 25.24772 | 17418 ft | 368 kts | 96° |
| 2026-04-24 15:47 | 44.73534 | 25.28274 | 17084 ft | 367 kts | 96° |
| 2026-04-24 15:47 | 44.73004 | 25.31779 | 16746 ft | 366 kts | 96° |
| 2026-04-24 15:48 | 44.72467 | 25.35310 | 16388 ft | 364 kts | 96° |
| 2026-04-24 15:48 | 44.71934 | 25.38786 | 16046 ft | 363 kts | 96° |
| 2026-04-24 15:48 | 44.71404 | 25.42246 | 15709 ft | 362 kts | 97° |
| 2026-04-24 15:48 | 44.70869 | 25.45724 | 15361 ft | 360 kts | 97° |
| 2026-04-24 15:49 | 44.70345 | 25.49124 | 15020 ft | 358 kts | 97° |
| 2026-04-24 15:49 | 44.69815 | 25.52560 | 14676 ft | 357 kts | 97° |
| 2026-04-24 15:49 | 44.69295 | 25.55924 | 14338 ft | 355 kts | 97° |
| 2026-04-24 15:49 | 44.68762 | 25.59366 | 13979 ft | 354 kts | 97° |
| 2026-04-24 15:50 | 44.68239 | 25.62731 | 13687 ft | 353 kts | 97° |
| 2026-04-24 15:50 | 44.67716 | 25.66094 | 13439 ft | 351 kts | 98° |
| 2026-04-24 15:50 | 44.67192 | 25.69457 | 13203 ft | 351 kts | 98° |
| 2026-04-24 15:50 | 44.66672 | 25.72789 | 12949 ft | 349 kts | 98° |
| 2026-04-24 15:51 | 44.66151 | 25.76104 | 12684 ft | 349 kts | 98° |
| 2026-04-24 15:51 | 44.65628 | 25.79441 | 12381 ft | 347 kts | 98° |
| 2026-04-24 15:51 | 44.65105 | 25.82772 | 12136 ft | 346 kts | 99° |
| 2026-04-24 15:51 | 44.64693 | 25.86056 | 11864 ft | 342 kts | 92° |
| 2026-04-24 15:52 | 44.64599 | 25.89411 | 11611 ft | 338 kts | 84° |
| 2026-04-24 15:52 | 44.64787 | 25.92717 | 11363 ft | 336 kts | 80° |
| 2026-04-24 15:52 | 44.65047 | 25.95947 | 11118 ft | 335 kts | 80° |
| 2026-04-24 15:52 | 44.65316 | 25.99186 | 10869 ft | 333 kts | 80° |
| 2026-04-24 15:53 | 44.65578 | 26.02423 | 10623 ft | 333 kts | 81° |
| 2026-04-24 15:53 | 44.65828 | 26.05659 | 10373 ft | 332 kts | 81° |
| 2026-04-24 15:53 | 44.66071 | 26.08838 | 10126 ft | 331 kts | 81° |
| 2026-04-24 15:53 | 44.66316 | 26.12067 | 9879 ft | 331 kts | 81° |
| 2026-04-24 15:54 | 44.66557 | 26.15264 | 9749 ft | 331 kts | 81° |
| 2026-04-24 15:54 | 44.66798 | 26.18487 | 9627 ft | 328 kts | 81° |
| 2026-04-24 15:54 | 44.67027 | 26.21585 | 9488 ft | 309 kts | 81° |
| 2026-04-24 15:54 | 44.67241 | 26.24501 | 9363 ft | 298 kts | 81° |
| 2026-04-24 15:55 | 44.67457 | 26.27408 | 9236 ft | 297 kts | 81° |
| 2026-04-24 15:55 | 44.67672 | 26.30274 | 8866 ft | 299 kts | 81° |
| 2026-04-24 15:55 | 44.67888 | 26.33176 | 8051 ft | 304 kts | 81° |
| 2026-04-24 15:55 | 44.68111 | 26.36155 | 7193 ft | 309 kts | 82° |
| 2026-04-24 15:56 | 44.68332 | 26.39149 | 6175 ft | 316 kts | 82° |
| 2026-04-24 15:56 | 44.68548 | 26.42168 | 5621 ft | 304 kts | 82° |
| 2026-04-24 15:56 | 44.68751 | 26.45043 | 5197 ft | 290 kts | 82° |
| 2026-04-24 15:56 | 44.68948 | 26.47796 | 4789 ft | 278 kts | 81° |
| 2026-04-24 15:57 | 44.68917 | 26.50468 | 4361 ft | 272 kts | 104° |
| 2026-04-24 15:57 | 44.67955 | 26.52665 | 3929 ft | 267 kts | 140° |
| 2026-04-24 15:57 | 44.66335 | 26.53835 | 3555 ft | 258 kts | 167° |
| 2026-04-24 15:57 | 44.64581 | 26.53959 | 3095 ft | 250 kts | 192° |
| 2026-04-24 15:58 | 44.62986 | 26.53115 | 2652 ft | 239 kts | 216° |
| 2026-04-24 15:58 | 44.61832 | 26.51597 | 2556 ft | 222 kts | 238° |
| 2026-04-24 15:58 | 44.61077 | 26.49759 | 2599 ft | 213 kts | 249° |
| 2026-04-24 15:58 | 44.60635 | 26.47830 | 2593 ft | 205 kts | 260° |
| 2026-04-24 15:59 | 44.60434 | 26.45853 | 2571 ft | 203 kts | 268° |
| 2026-04-24 15:59 | 44.60336 | 26.43884 | 2556 ft | 203 kts | 268° |
| 2026-04-24 15:59 | 44.60231 | 26.41942 | 2562 ft | 187 kts | 268° |
| 2026-04-24 15:59 | 44.60115 | 26.40134 | 2550 ft | 184 kts | 267° |
| 2026-04-24 16:00 | 44.59984 | 26.38332 | 2546 ft | 184 kts | 266° |
| 2026-04-24 16:00 | 44.59849 | 26.36612 | 2520 ft | 168 kts | 266° |
| 2026-04-24 16:00 | 44.59722 | 26.35043 | 2512 ft | 159 kts | 266° |
| 2026-04-24 16:00 | 44.59597 | 26.33494 | 2527 ft | 158 kts | 266° |
| 2026-04-24 16:01 | 44.59473 | 26.31948 | 2536 ft | 157 kts | 266° |
| 2026-04-24 16:01 | 44.59351 | 26.30418 | 2538 ft | 157 kts | 267° |
| 2026-04-24 16:01 | 44.59228 | 26.28871 | 2491 ft | 158 kts | 266° |
| 2026-04-24 16:01 | 44.59109 | 26.27350 | 2304 ft | 157 kts | 266° |
| 2026-04-24 16:02 | 44.58990 | 26.25831 | 2099 ft | 156 kts | 266° |
| 2026-04-24 16:02 | 44.58871 | 26.24304 | 1894 ft | 156 kts | 266° |
| 2026-04-24 16:02 | 44.58754 | 26.22793 | 1693 ft | 156 kts | 266° |
| 2026-04-24 16:02 | 44.58638 | 26.21279 | 1494 ft | 155 kts | 265° |
| 2026-04-24 16:03 | 44.58522 | 26.19765 | 1290 ft | 154 kts | 265° |
| 2026-04-24 16:03 | 44.58409 | 26.18277 | 1092 ft | 153 kts | 264° |
| 2026-04-24 16:03 | 44.58294 | 26.16778 | 891 ft | 152 kts | 265° |
| 2026-04-24 16:03 | 44.58189 | 26.15319 | 699 ft | 151 kts | 263° |
| 2026-04-24 16:04 | 44.58071 | 26.13868 | 509 ft | 149 kts | 264° |
| 2026-04-24 16:04 | 44.57965 | 26.12419 | 333 ft | 147 kts | 264° |
| 2026-04-24 16:04 | 44.57867 | 26.11114 | 320 ft | 119 kts | 264° |
| 2026-04-24 16:04 | 44.57797 | 26.10236 | 320 ft | 52 kts | 261° |
| 2026-04-24 16:05 | 44.57659 | 26.09848 | 320 ft | 5 kts | 232° |
| 2026-04-24 16:05 | 44.57634 | 26.09801 | 320 ft | 6 kts | 232° |
| 2026-04-24 16:06 | 44.57587 | 26.09662 | 320 ft | 9 kts | 259° |
| 2026-04-24 16:06 | 44.57577 | 26.09570 | 320 ft | 9 kts | 264° |
| 2026-04-24 16:06 | 44.57563 | 26.09371 | 320 ft | 11 kts | 264° |
| 2026-04-24 16:07 | 44.57552 | 26.09237 | 320 ft | 15 kts | 264° |
| 2026-04-24 16:07 | 44.57543 | 26.09093 | 320 ft | 14 kts | 263° |
| 2026-04-24 16:07 | 44.57517 | 26.08760 | 320 ft | 21 kts | 264° |
| 2026-04-24 16:08 | 44.57502 | 26.08569 | 320 ft | 17 kts | 262° |
| 2026-04-24 16:08 | 44.57302 | 26.08493 | 320 ft | 17 kts | 173° |
| 2026-04-24 16:09 | 44.57217 | 26.08267 | 320 ft | 11 kts | 264° |
| 2026-04-24 16:09 | 44.57209 | 26.08153 | 320 ft | 11 kts | 264° |
| 2026-04-24 16:09 | 44.57202 | 26.08071 | 320 ft | 3 kts | 248° |
| 2026-04-24 16:09 | 44.57177 | 26.08054 | 320 ft | 4 kts | 185° |